Time;durP1;ratioP1;P1;durP2;ratioP2;P2;SDS_P1;SDS_P2;PMS_P1;PMS_P2;Temp;Humidity;BMP_temperature;BMP_pressure;BME280_temperature;BME280_humidity;BME280_pressure;Samples;Min_cycle;Max_cycle;Signal;HPM_P1;HPM_P2
2021/03/14 00:02:13;;;;;;;0.60;0.60;;;;;;;3.83;100.00;95208.44;5049406;28;20175;-63
2021/03/14 00:04:39;;;;;;;1.00;0.83;;;;;;;3.95;100.00;95206.75;5050349;28;20224;-63
2021/03/14 00:07:06;;;;;;;0.90;0.80;;;;;;;3.90;100.00;95209.97;5029350;28;20483;-66
2021/03/14 00:09:32;;;;;;;1.23;0.80;;;;;;;4.15;100.00;95218.53;5040328;28;20447;-67
2021/03/14 00:11:57;;;;;;;0.60;0.60;;;;;;;4.43;100.00;95218.06;5049514;28;20412;-67
2021/03/14 00:14:23;;;;;;;1.57;0.60;;;;;;;4.29;100.00;95218.41;5052595;28;20631;-64
2021/03/14 00:16:49;;;;;;;2.87;0.90;;;;;;;4.31;100.00;95208.59;5053127;28;20194;-65
2021/03/14 00:19:14;;;;;;;0.67;0.67;;;;;;;4.45;100.00;95204.84;5053729;28;20197;-65
2021/03/14 00:21:40;;;;;;;0.70;0.70;;;;;;;4.10;100.00;95217.59;5072818;28;20412;-65
2021/03/14 00:24:06;;;;;;;0.70;0.70;;;;;;;4.33;100.00;95229.97;5062556;28;20203;-63
2021/03/14 00:26:31;;;;;;;0.80;0.50;;;;;;;4.68;99.88;95236.22;5052983;28;20188;-66
2021/03/14 00:28:56;;;;;;;0.70;0.70;;;;;;;4.26;100.00;95235.22;5053171;28;20553;-65
2021/03/14 00:31:22;;;;;;;0.60;0.60;;;;;;;4.73;100.00;95247.56;5053297;28;20195;-62
2021/03/14 00:33:47;;;;;;;4.37;1.07;;;;;;;4.37;100.00;95257.13;5053680;28;20183;-65
2021/03/14 00:36:12;;;;;;;0.70;0.70;;;;;;;4.69;100.00;95249.00;5052666;28;20860;-65
2021/03/14 00:38:38;;;;;;;1.00;1.00;;;;;;;5.03;97.31;95253.63;5043823;28;20239;-62
2021/03/14 00:41:03;;;;;;;1.60;1.00;;;;;;;4.72;96.45;95253.78;5052953;28;20641;-65
2021/03/14 00:43:29;;;;;;;0.73;0.73;;;;;;;4.85;96.46;95268.44;5052815;28;20173;-68
2021/03/14 00:45:54;;;;;;;0.50;0.50;;;;;;;4.54;95.69;95261.56;5057570;28;20196;-64
2021/03/14 00:48:20;;;;;;;0.60;0.60;;;;;;;4.29;97.20;95263.41;5055890;28;20277;-66
2021/03/14 00:50:45;;;;;;;0.73;0.73;;;;;;;4.28;96.93;95253.22;5058998;28;20163;-62
2021/03/14 00:53:11;;;;;;;0.60;0.60;;;;;;;4.02;99.08;95255.03;5059457;28;20539;-63
2021/03/14 00:55:36;;;;;;;0.60;0.60;;;;;;;4.26;96.70;95253.44;5060780;28;20207;-66
2021/03/14 00:58:03;;;;;;;0.40;0.40;;;;;;;4.26;97.18;95248.22;5062724;28;20258;-66
2021/03/14 01:00:28;;;;;;;0.90;0.70;;;;;;;4.02;98.47;95246.47;5056021;28;20414;-66
2021/03/14 01:02:54;;;;;;;0.80;0.80;;;;;;;4.33;97.02;95258.59;5055941;28;20904;-64
2021/03/14 01:05:20;;;;;;;0.83;0.73;;;;;;;4.12;97.71;95259.75;5055945;28;20178;-63
2021/03/14 01:07:45;;;;;;;0.70;0.70;;;;;;;4.24;96.82;95262.47;5055276;28;20655;-66
2021/03/14 01:10:12;;;;;;;0.40;0.40;;;;;;;3.92;98.28;95261.72;5055980;28;20707;-66
2021/03/14 01:12:39;;;;;;;0.60;0.60;;;;;;;3.98;98.52;95266.88;5056946;28;20541;-66
2021/03/14 01:15:07;;;;;;;0.97;0.93;;;;;;;4.03;98.88;95279.22;5063174;28;20433;-64
2021/03/14 01:17:33;;;;;;;1.20;1.10;;;;;;;3.98;98.39;95279.06;5062283;28;20518;-63
2021/03/14 01:19:58;;;;;;;0.90;0.90;;;;;;;3.72;99.32;95279.22;5065449;28;20811;-66
2021/03/14 01:22:24;;;;;;;1.50;1.40;;;;;;;3.86;99.22;95267.78;5055638;28;20185;-65
2021/03/14 01:24:49;;;;;;;1.13;1.10;;;;;;;3.66;100.00;95274.91;5071510;28;20253;-66
2021/03/14 01:27:15;;;;;;;1.23;1.13;;;;;;;3.48;100.00;95272.22;5075186;28;20217;-63
2021/03/14 01:29:40;;;;;;;2.30;1.30;;;;;;;3.55;100.00;95278.94;5075704;28;20525;-64
2021/03/14 01:32:06;;;;;;;2.10;1.00;;;;;;;3.64;100.00;95277.69;5075507;28;20197;-63
2021/03/14 01:34:31;;;;;;;0.90;0.90;;;;;;;3.78;100.00;95276.63;5075387;28;20188;-63
2021/03/14 01:36:57;;;;;;;0.77;0.77;;;;;;;4.07;99.13;95281.19;5072954;28;20459;-63
2021/03/14 01:39:22;;;;;;;0.90;0.90;;;;;;;3.81;100.00;95276.19;5056981;28;20248;-66
2021/03/14 01:41:48;;;;;;;0.80;0.80;;;;;;;3.71;100.00;95270.66;5055516;28;20528;-63
2021/03/14 01:44:13;;;;;;;0.70;0.70;;;;;;;3.67;100.00;95277.28;5055460;28;20171;-65
2021/03/14 01:46:39;;;;;;;0.50;0.50;;;;;;;3.74;100.00;95282.41;5055447;28;20227;-63
2021/03/14 01:49:04;;;;;;;0.93;0.80;;;;;;;3.80;100.00;95277.19;5055160;28;20186;-66
2021/03/14 01:51:31;;;;;;;0.70;0.70;;;;;;;3.82;99.43;95285.56;5060958;28;20223;-66
2021/03/14 01:53:57;;;;;;;0.60;0.60;;;;;;;3.83;99.54;95286.34;5055373;28;20592;-63
2021/03/14 01:56:22;;;;;;;0.53;0.53;;;;;;;3.81;99.24;95286.56;5054778;28;20539;-63
2021/03/14 01:58:49;;;;;;;0.40;0.40;;;;;;;3.55;100.00;95285.94;5054926;28;20227;-64
2021/03/14 02:01:14;;;;;;;0.40;0.40;;;;;;;3.82;100.00;95290.75;5053795;28;20244;-65
2021/03/14 02:03:40;;;;;;;0.80;0.50;;;;;;;3.58;100.00;95295.91;5056069;28;20904;-66
2021/03/14 02:06:06;;;;;;;0.50;0.50;;;;;;;3.71;100.00;95290.63;5054160;28;20414;-66
2021/03/14 02:08:31;;;;;;;0.83;0.47;;;;;;;3.78;100.00;95296.59;5055082;28;20191;-66
2021/03/14 02:10:56;;;;;;;0.43;0.43;;;;;;;3.63;100.00;95299.47;5054533;28;20581;-66
2021/03/14 02:13:35;;;;;;;1.30;0.47;;;;;;;3.35;100.00;95316.41;5054852;28;20174;-65
2021/03/14 02:16:09;;;;;;;0.53;0.50;;;;;;;3.46;100.00;95308.75;5069869;28;20202;-64
2021/03/14 02:18:38;;;;;;;0.40;0.40;;;;;;;3.39;100.00;95320.97;5067844;28;20980;-63
2021/03/14 02:21:04;;;;;;;0.60;0.60;;;;;;;3.49;100.00;95330.91;5054733;28;20753;-66
2021/03/14 02:23:56;;;;;;;0.53;0.53;;;;;;;3.46;100.00;95334.69;5053657;28;20397;-66
2021/03/14 02:27:00;;;;;;;0.87;0.50;;;;;;;3.45;100.00;95332.31;5033886;28;20450;-66
2021/03/14 02:29:26;;;;;;;0.60;0.60;;;;;;;3.56;100.00;95335.06;5034167;28;20955;-63
2021/03/14 02:31:54;;;;;;;0.57;0.57;;;;;;;3.60;100.00;95331.06;5053044;28;20425;-63
2021/03/14 02:35:01;;;;;;;0.60;0.50;;;;;;;3.19;100.00;95337.63;5053801;28;20483;-66
2021/03/14 02:37:28;;;;;;;0.50;0.50;;;;;;;3.23;100.00;95331.81;5062288;28;20466;-66
2021/03/14 02:39:57;;;;;;;0.70;0.70;;;;;;;3.35;100.00;95326.78;5054273;28;20875;-66
2021/03/14 02:42:25;;;;;;;0.73;0.73;;;;;;;3.37;100.00;95338.53;5054190;28;20411;-66
2021/03/14 02:44:52;;;;;;;0.50;0.50;;;;;;;3.47;100.00;95340.69;5054272;28;20494;-63
2021/03/14 02:47:19;;;;;;;0.60;0.60;;;;;;;3.53;100.00;95335.50;5063932;28;20418;-66
2021/03/14 02:49:48;;;;;;;0.63;0.57;;;;;;;3.61;100.00;95340.44;5074041;28;20529;-63
2021/03/14 02:52:13;;;;;;;1.10;0.70;;;;;;;3.54;100.00;95347.47;5074227;28;20397;-63
2021/03/14 02:54:40;;;;;;;0.50;0.50;;;;;;;3.61;100.00;95352.59;5073403;28;20955;-67
2021/03/14 02:57:07;;;;;;;0.70;0.70;;;;;;;3.70;100.00;95362.56;5033638;28;20194;-63
2021/03/14 02:59:34;;;;;;;0.77;0.77;;;;;;;3.76;100.00;95364.31;5037907;28;20974;-67
2021/03/14 03:02:01;;;;;;;0.70;0.70;;;;;;;3.56;100.00;95366.22;5038114;28;20497;-66
2021/03/14 03:04:27;;;;;;;0.63;0.57;;;;;;;3.38;100.00;95367.88;5053952;28;20402;-63
2021/03/14 03:06:57;;;;;;;1.03;0.80;;;;;;;3.23;100.00;95370.72;5053327;28;20422;-66
2021/03/14 03:09:23;;;;;;;0.73;0.60;;;;;;;3.40;100.00;95377.06;5053732;28;20200;-66
2021/03/14 03:11:51;;;;;;;0.67;0.67;;;;;;;3.20;100.00;95393.69;5053614;28;20420;-66
2021/03/14 03:14:18;;;;;;;0.70;0.70;;;;;;;3.51;100.00;95394.63;5053471;28;20422;-63
2021/03/14 03:16:48;;;;;;;0.60;0.60;;;;;;;3.89;100.00;95399.81;5053024;28;20981;-63
2021/03/14 03:19:15;;;;;;;0.70;0.70;;;;;;;3.93;98.50;95401.00;5053736;28;20469;-66
2021/03/14 03:21:42;;;;;;;0.60;0.60;;;;;;;4.03;98.33;95411.72;5053834;28;20424;-63
2021/03/14 03:24:08;;;;;;;0.43;0.43;;;;;;;3.98;96.92;95412.38;5053802;28;20427;-64
2021/03/14 03:26:41;;;;;;;1.20;0.73;;;;;;;3.59;99.38;95427.31;5053337;28;20437;-65
2021/03/14 03:29:08;;;;;;;0.63;0.63;;;;;;;3.67;99.67;95422.69;5054074;28;20945;-66
2021/03/14 03:31:33;;;;;;;0.50;0.50;;;;;;;3.74;99.57;95428.66;5053624;28;20791;-66
2021/03/14 03:33:59;;;;;;;0.53;0.53;;;;;;;3.88;98.97;95430.19;5053145;28;20557;-63
2021/03/14 03:36:24;;;;;;;1.03;0.50;;;;;;;3.88;98.40;95432.78;5053150;28;20231;-66
2021/03/14 03:38:50;;;;;;;1.07;0.93;;;;;;;3.98;98.27;95435.75;5053311;28;20199;-66
2021/03/14 03:41:15;;;;;;;0.50;0.50;;;;;;;3.98;97.41;95446.16;5053359;28;20160;-63
2021/03/14 03:43:43;;;;;;;0.60;0.60;;;;;;;4.06;97.10;95445.91;5053578;28;20172;-66
2021/03/14 03:46:11;;;;;;;0.80;0.80;;;;;;;4.36;96.05;95447.94;5053087;28;20165;-64
2021/03/14 03:48:40;;;;;;;0.70;0.70;;;;;;;4.66;95.26;95459.31;5052446;28;20425;-66
2021/03/14 03:51:06;;;;;;;0.90;0.90;;;;;;;4.49;94.55;95461.66;5053568;28;20538;-63
2021/03/14 03:53:37;;;;;;;0.60;0.60;;;;;;;4.21;96.98;95463.81;5053175;28;20494;-66
2021/03/14 03:56:04;;;;;;;0.87;0.87;;;;;;;3.92;97.24;95465.16;5064040;28;20453;-66
2021/03/14 03:58:31;;;;;;;1.03;0.60;;;;;;;3.79;97.91;95473.00;5073286;28;20428;-63
2021/03/14 04:00:59;;;;;;;0.90;0.90;;;;;;;3.95;97.49;95469.94;5073358;28;20403;-63
2021/03/14 04:03:24;;;;;;;0.70;0.70;;;;;;;3.88;98.43;95479.56;5073335;28;20399;-66
2021/03/14 04:05:55;;;;;;;1.70;1.10;;;;;;;4.03;97.29;95489.69;5073445;28;20478;-63
2021/03/14 04:08:21;;;;;;;1.43;0.83;;;;;;;3.81;98.13;95499.56;5070860;28;20183;-66
2021/03/14 04:10:47;;;;;;;2.10;1.27;;;;;;;3.85;98.92;95500.75;5053526;28;20429;-66
2021/03/14 04:13:15;;;;;;;1.00;1.00;;;;;;;4.03;97.92;95506.09;5053159;28;20984;-66
2021/03/14 04:15:41;;;;;;;0.93;0.93;;;;;;;3.97;97.77;95513.88;5051925;28;20778;-63
2021/03/14 04:18:07;;;;;;;1.80;1.23;;;;;;;4.16;97.40;95519.03;5052661;28;20460;-63
2021/03/14 04:20:36;;;;;;;0.97;0.97;;;;;;;4.12;96.68;95525.63;5052913;28;20173;-65
2021/03/14 04:23:06;;;;;;;1.07;1.07;;;;;;;4.23;97.10;95529.38;5052749;28;20406;-66
2021/03/14 04:25:32;;;;;;;1.13;1.13;;;;;;;3.89;98.08;95532.31;5060055;28;20831;-66
2021/03/14 04:27:59;;;;;;;1.00;1.00;;;;;;;4.10;96.80;95534.63;5052517;28;20815;-66
2021/03/14 04:30:26;;;;;;;1.10;1.10;;;;;;;4.02;96.36;95540.84;5053281;28;20909;-64
2021/03/14 04:32:53;;;;;;;1.57;1.47;;;;;;;4.02;97.72;95553.84;5053008;28;20417;-66
2021/03/14 04:35:20;;;;;;;1.63;1.20;;;;;;;3.72;97.83;95550.13;5053040;28;20450;-64
2021/03/14 04:37:45;;;;;;;2.53;1.43;;;;;;;3.63;98.94;95558.34;5052141;28;20475;-63
2021/03/14 04:40:13;;;;;;;1.10;1.10;;;;;;;3.76;98.24;95553.94;5053100;28;20427;-66
2021/03/14 04:42:42;;;;;;;1.67;0.90;;;;;;;3.44;100.00;95572.97;5052936;28;20169;-63
2021/03/14 04:45:08;;;;;;;0.90;0.90;;;;;;;3.34;100.00;95569.16;5053033;28;20862;-66
2021/03/14 04:47:34;;;;;;;1.80;1.10;;;;;;;3.39;100.00;95561.59;5052130;28;20440;-66
2021/03/14 04:50:00;;;;;;;1.37;0.90;;;;;;;3.01;100.00;95574.31;5052719;28;20406;-66
2021/03/14 04:52:26;;;;;;;2.57;1.00;;;;;;;2.96;100.00;95574.13;5052623;28;20442;-63
2021/03/14 04:54:53;;;;;;;1.10;1.00;;;;;;;3.03;100.00;95580.94;5052769;28;20207;-63
2021/03/14 04:57:20;;;;;;;1.13;1.10;;;;;;;2.89;100.00;95579.31;5051952;28;20500;-66
2021/03/14 04:59:46;;;;;;;0.87;0.83;;;;;;;3.09;100.00;95587.13;5053216;28;20442;-66
2021/03/14 05:02:14;;;;;;;2.03;1.73;;;;;;;3.25;100.00;95580.72;5056393;28;20407;-66
2021/03/14 05:04:44;;;;;;;2.33;0.97;;;;;;;3.06;100.00;95585.72;5056152;28;20415;-66
2021/03/14 05:07:11;;;;;;;1.03;0.93;;;;;;;2.92;100.00;95583.31;5055828;28;20505;-65
2021/03/14 05:09:38;;;;;;;0.83;0.83;;;;;;;3.10;100.00;95591.31;5056397;28;20446;-63
2021/03/14 05:12:05;;;;;;;2.30;0.63;;;;;;;3.03;100.00;95600.88;5055943;28;20826;-63
2021/03/14 05:14:33;;;;;;;1.73;1.53;;;;;;;2.87;100.00;95596.88;5055911;28;20801;-63
2021/03/14 05:16:59;;;;;;;0.70;0.70;;;;;;;2.70;100.00;95603.41;5055369;28;20462;-64
2021/03/14 05:19:25;;;;;;;1.23;0.67;;;;;;;2.81;100.00;95613.22;5055920;28;20928;-66
2021/03/14 05:21:50;;;;;;;0.60;0.60;;;;;;;2.80;100.00;95616.81;5057056;28;20180;-63
2021/03/14 05:24:16;;;;;;;0.83;0.67;;;;;;;2.84;100.00;95618.03;5055888;28;20755;-66
2021/03/14 05:26:44;;;;;;;0.57;0.50;;;;;;;3.10;100.00;95620.66;5055560;28;20175;-66
2021/03/14 05:29:11;;;;;;;0.80;0.80;;;;;;;2.87;100.00;95620.22;5055948;28;20195;-65
2021/03/14 05:31:38;;;;;;;0.70;0.70;;;;;;;2.80;100.00;95628.97;5055937;28;20418;-64
2021/03/14 05:34:06;;;;;;;1.07;0.70;;;;;;;2.48;100.00;95624.50;5035941;28;20786;-63
2021/03/14 05:36:32;;;;;;;1.33;0.60;;;;;;;2.70;100.00;95631.94;5052311;28;20460;-64
2021/03/14 05:38:59;;;;;;;1.67;0.70;;;;;;;2.82;100.00;95642.53;5055512;28;20442;-63
2021/03/14 05:41:26;;;;;;;1.27;0.70;;;;;;;2.80;100.00;95640.16;5055698;28;20403;-63
2021/03/14 05:43:52;;;;;;;0.77;0.67;;;;;;;3.07;100.00;95639.22;5055430;28;20832;-65
2021/03/14 05:46:18;;;;;;;0.73;0.67;;;;;;;3.04;100.00;95642.19;5054814;28;20412;-63
2021/03/14 05:48:44;;;;;;;1.37;0.60;;;;;;;2.98;100.00;95645.59;5058855;28;20510;-66
2021/03/14 05:51:12;;;;;;;0.70;0.70;;;;;;;3.06;100.00;95654.97;5075268;28;20403;-64
2021/03/14 05:53:39;;;;;;;0.83;0.80;;;;;;;3.09;100.00;95662.38;5075759;28;20409;-64
2021/03/14 05:56:07;;;;;;;0.50;0.50;;;;;;;3.11;100.00;95660.38;5075020;28;20893;-63
2021/03/14 05:58:35;;;;;;;0.87;0.87;;;;;;;3.15;100.00;95667.56;5075180;28;20856;-64
2021/03/14 06:01:02;;;;;;;0.83;0.83;;;;;;;3.26;100.00;95668.78;5069789;28;20931;-66
2021/03/14 06:03:28;;;;;;;1.90;0.93;;;;;;;3.22;100.00;95672.78;5059990;28;20508;-66
2021/03/14 06:05:53;;;;;;;1.83;1.20;;;;;;;3.22;100.00;95675.38;5074986;28;20414;-64
2021/03/14 06:08:19;;;;;;;3.10;0.93;;;;;;;3.25;100.00;95682.75;5074830;28;20817;-63
2021/03/14 06:10:44;;;;;;;2.03;1.17;;;;;;;3.25;100.00;95687.94;5074792;28;20510;-66
2021/03/14 06:13:10;;;;;;;1.87;1.00;;;;;;;3.57;100.00;95705.34;5074901;28;20165;-66
2021/03/14 06:15:36;;;;;;;1.13;1.03;;;;;;;3.56;99.32;95705.56;5070772;28;20168;-66
2021/03/14 06:18:01;;;;;;;1.43;1.33;;;;;;;3.58;98.36;95709.56;5067412;28;20511;-63
2021/03/14 06:20:33;;;;;;;2.90;1.30;;;;;;;3.84;97.38;95722.56;5072484;28;20653;-66
2021/03/14 06:23:09;;;;;;;1.60;1.50;;;;;;;3.97;96.37;95722.56;5054975;28;20620;-66
2021/03/14 06:25:35;;;;;;;4.40;1.37;;;;;;;3.62;96.57;95731.56;5054926;28;20410;-66
2021/03/14 06:28:01;;;;;;;2.33;1.20;;;;;;;3.69;96.70;95734.16;5054160;28;20442;-63
2021/03/14 06:30:29;;;;;;;1.50;1.23;;;;;;;3.88;96.36;95738.53;5054646;28;20406;-63
2021/03/14 06:33:15;;;;;;;1.53;1.27;;;;;;;3.86;96.29;95756.16;5069885;28;20193;-67
2021/03/14 06:35:48;;;;;;;2.70;1.00;;;;;;;3.96;95.08;95757.34;5068431;28;20780;-66
2021/03/14 06:38:32;;;;;;;3.20;1.20;;;;;;;3.70;94.79;95762.50;5054028;28;20476;-64
2021/03/14 06:41:03;;;;;;;4.20;1.20;;;;;;;3.84;95.24;95758.94;5054481;28;20907;-66
2021/03/14 06:43:50;;;;;;;4.00;1.50;;;;;;;3.67;94.14;95773.31;5054176;28;20404;-63
2021/03/14 06:46:32;;;;;;;2.70;1.33;;;;;;;3.50;95.65;95776.44;5067333;28;20433;-66
2021/03/14 06:49:18;;;;;;;1.67;1.17;;;;;;;3.29;95.83;95779.19;5074120;28;20432;-66
2021/03/14 06:51:58;;;;;;;1.23;1.00;;;;;;;3.45;95.46;95786.63;5074256;28;20790;-68
2021/03/14 06:54:29;;;;;;;4.17;1.37;;;;;;;3.58;95.56;95776.28;5034484;28;20412;-66
2021/03/14 06:56:59;;;;;;;5.77;1.80;;;;;;;3.51;93.67;95794.44;5033799;28;20484;-64
2021/03/14 06:59:25;;;;;;;1.60;1.50;;;;;;;3.01;95.33;95800.03;5038630;28;20971;-64
2021/03/14 07:02:01;;;;;;;1.73;1.60;;;;;;;3.35;94.95;95794.81;5054136;28;20485;-63
2021/03/14 07:04:37;;;;;;;1.90;1.40;;;;;;;3.10;96.58;95804.88;5053613;28;20168;-64
2021/03/14 07:07:03;;;;;;;5.37;2.00;;;;;;;3.41;95.17;95809.56;5066523;28;20413;-63
2021/03/14 07:09:29;;;;;;;2.63;1.13;;;;;;;3.32;94.76;95810.75;5054889;28;20435;-67
2021/03/14 07:11:54;;;;;;;2.10;1.87;;;;;;;3.32;96.10;95813.34;5053793;28;20417;-63
2021/03/14 07:14:20;;;;;;;3.07;1.83;;;;;;;3.31;95.14;95818.72;5053787;28;20412;-65
2021/03/14 07:16:51;;;;;;;2.93;1.03;;;;;;;3.69;93.52;95823.25;5052467;28;20594;-67
2021/03/14 07:19:23;;;;;;;4.30;1.50;;;;;;;3.90;93.04;95827.47;5069131;28;20438;-66
2021/03/14 07:22:08;;;;;;;2.00;1.90;;;;;;;3.70;93.96;95835.22;5053045;28;21030;-64
2021/03/14 07:24:42;;;;;;;4.27;1.20;;;;;;;3.55;94.04;95842.38;5053468;28;20512;-66
2021/03/14 07:27:12;;;;;;;2.20;1.33;;;;;;;3.80;94.44;95842.66;5053105;28;20440;-65
2021/03/14 07:29:39;;;;;;;7.30;1.47;;;;;;;4.19;92.39;95838.31;5072456;28;20474;-67
2021/03/14 07:32:07;;;;;;;1.80;1.30;;;;;;;4.27;91.68;95852.94;5073287;28;20423;-63
2021/03/14 07:34:33;;;;;;;4.73;1.97;;;;;;;3.99;92.11;95858.28;5051641;28;20459;-64
2021/03/14 07:36:59;;;;;;;4.80;1.53;;;;;;;4.08;91.09;95857.09;5053086;28;20456;-66
2021/03/14 07:39:25;;;;;;;3.40;1.57;;;;;;;3.92;91.12;95860.06;5053414;28;20219;-66
2021/03/14 07:41:51;;;;;;;2.53;2.03;;;;;;;4.10;92.21;95854.31;5062265;28;20588;-64
2021/03/14 07:44:22;;;;;;;4.23;1.50;;;;;;;4.02;91.70;95865.69;5073041;28;21035;-66
2021/03/14 07:46:49;;;;;;;4.23;1.77;;;;;;;3.64;91.97;95864.56;5072977;28;20465;-64
2021/03/14 07:49:17;;;;;;;2.40;1.50;;;;;;;3.52;92.79;95863.53;5069888;28;20446;-64
2021/03/14 07:51:50;;;;;;;4.00;1.70;;;;;;;3.83;91.23;95868.25;5053369;28;20411;-66
2021/03/14 07:54:22;;;;;;;3.83;1.50;;;;;;;3.82;90.52;95870.03;5053043;28;20421;-64
2021/03/14 07:56:50;;;;;;;3.17;1.17;;;;;;;3.98;90.85;95869.69;5053072;28;20463;-64
2021/03/14 07:59:31;;;;;;;1.40;1.30;;;;;;;4.05;89.60;95882.69;5052996;28;20447;-64
2021/03/14 08:02:18;;;;;;;2.90;1.60;;;;;;;3.96;90.47;95871.69;5053620;28;20441;-63
2021/03/14 08:04:48;;;;;;;3.03;1.43;;;;;;;4.29;89.75;95883.94;5053262;28;20397;-66
2021/03/14 08:07:14;;;;;;;4.63;1.80;;;;;;;4.32;88.71;95893.91;5052428;28;20419;-66
2021/03/14 08:09:48;;;;;;;2.40;1.47;;;;;;;4.42;88.12;95892.53;5053280;28;20787;-64
2021/03/14 08:12:13;;;;;;;2.70;1.30;;;;;;;4.08;91.21;95896.09;5053163;28;20431;-63
2021/03/14 08:14:45;;;;;;;2.73;1.30;;;;;;;4.59;90.30;95900.75;5054115;28;20433;-63
2021/03/14 08:17:14;;;;;;;7.20;1.57;;;;;;;4.38;89.90;95904.34;5052608;28;20220;-67
2021/03/14 08:19:41;;;;;;;2.87;2.13;;;;;;;4.38;91.47;95908.75;5053165;28;20416;-66
2021/03/14 08:22:06;;;;;;;3.60;2.20;;;;;;;4.54;89.58;95908.34;5052905;28;20425;-64
2021/03/14 08:24:33;;;;;;;6.50;1.70;;;;;;;4.67;90.10;95900.56;5052972;28;20462;-66
2021/03/14 08:27:08;;;;;;;2.03;1.50;;;;;;;4.84;89.64;95899.94;5054015;28;20186;-67
2021/03/14 08:29:42;;;;;;;2.77;1.20;;;;;;;4.95;88.68;95903.72;5053023;28;20444;-67
2021/03/14 08:32:22;;;;;;;3.13;1.57;;;;;;;4.87;88.18;95906.56;5051890;28;20842;-64
2021/03/14 08:34:47;;;;;;;3.33;1.50;;;;;;;4.79;86.90;95909.34;5054652;28;20451;-66
2021/03/14 08:37:24;;;;;;;3.20;1.33;;;;;;;4.60;87.59;95913.53;5056104;28;20503;-66
2021/03/14 08:39:59;;;;;;;2.30;1.00;;;;;;;4.90;87.90;95914.75;5056873;28;20177;-67
2021/03/14 08:42:57;;;;;;;1.63;1.23;;;;;;;4.92;87.61;95915.38;5056675;28;20508;-64
2021/03/14 08:45:25;;;;;;;1.87;1.43;;;;;;;4.98;86.91;95918.97;5056829;28;20419;-64
2021/03/14 08:47:53;;;;;;;3.53;1.43;;;;;;;5.12;86.38;95910.13;5056168;28;20817;-63
2021/03/14 08:50:20;;;;;;;2.63;1.27;;;;;;;5.33;85.68;95904.66;5056606;28;20402;-63
2021/03/14 08:52:45;;;;;;;1.37;1.27;;;;;;;4.96;85.02;95915.75;5056590;28;20847;-63
2021/03/14 08:55:11;;;;;;;2.50;1.53;;;;;;;5.38;85.83;95914.50;5057639;28;20432;-62
2021/03/14 08:57:37;;;;;;;4.30;1.77;;;;;;;5.34;85.26;95916.69;5056150;28;20214;-65
2021/03/14 09:00:05;;;;;;;4.13;1.83;;;;;;;5.17;85.11;95921.53;5057365;28;20517;-63
2021/03/14 09:02:33;;;;;;;3.70;1.30;;;;;;;5.21;84.23;95919.31;5066389;28;20656;-65
2021/03/14 09:05:23;;;;;;;1.67;1.47;;;;;;;4.99;83.99;95925.75;5074471;28;20432;-64
2021/03/14 09:07:58;;;;;;;3.70;1.77;;;;;;;4.95;85.75;95927.16;5035795;28;20433;-62
2021/03/14 09:10:24;;;;;;;2.57;1.23;;;;;;;5.01;85.37;95932.38;5051831;28;20439;-65
2021/03/14 09:13:01;;;;;;;2.37;1.20;;;;;;;5.28;84.68;95933.13;5074285;28;20420;-63
2021/03/14 09:15:26;;;;;;;5.23;1.43;;;;;;;5.53;85.35;95930.66;5073933;28;20178;-65
2021/03/14 09:17:57;;;;;;;2.87;1.70;;;;;;;5.63;84.33;95934.47;5057307;28;20909;-63
2021/03/14 09:20:23;;;;;;;2.60;1.90;;;;;;;5.46;83.41;95942.91;5056998;28;20194;-65
2021/03/14 09:22:48;;;;;;;5.37;2.37;;;;;;;5.75;83.18;95951.06;5069539;28;20428;-61
2021/03/14 09:25:14;;;;;;;6.23;2.80;;;;;;;5.98;82.21;95950.59;5070431;28;20182;-62
2021/03/14 09:27:42;;;;;;;1.90;1.43;;;;;;;6.03;82.61;95954.16;5055046;28;20711;-61
2021/03/14 09:30:07;;;;;;;4.67;2.40;;;;;;;6.23;82.07;95944.44;5055600;28;20418;-60
2021/03/14 09:32:52;;;;;;;2.57;1.87;;;;;;;6.05;81.56;95957.38;5057508;28;20470;-62
2021/03/14 09:35:36;;;;;;;3.17;0.90;;;;;;;6.30;81.42;95952.25;5046662;28;20175;-61
2021/03/14 09:38:09;;;;;;;1.63;1.20;;;;;;;6.12;80.20;95955.53;5060909;28;20468;-60
2021/03/14 09:40:39;;;;;;;3.80;1.20;;;;;;;6.11;79.33;95950.53;5055704;28;20475;-62
2021/03/14 09:43:09;;;;;;;0.90;0.87;;;;;;;6.30;82.56;95954.88;5055728;28;20406;-60
2021/03/14 09:45:36;;;;;;;1.97;0.83;;;;;;;5.96;80.50;95953.41;5055781;28;20418;-61
2021/03/14 09:48:14;;;;;;;2.13;1.30;;;;;;;5.78;83.52;95961.06;5056011;28;20438;-61
2021/03/14 09:50:52;;;;;;;4.03;0.90;;;;;;;5.53;82.30;95954.91;5060361;28;20413;-61
2021/03/14 09:53:23;;;;;;;1.83;1.10;;;;;;;5.93;82.63;95961.66;5058582;28;20471;-61
2021/03/14 09:55:50;;;;;;;2.27;1.50;;;;;;;6.03;78.94;95963.81;5055003;28;20418;-62
2021/03/14 09:58:21;;;;;;;2.10;1.03;;;;;;;6.07;78.77;95962.38;5059611;28;20495;-61
2021/03/14 10:00:48;;;;;;;3.43;1.20;;;;;;;5.96;80.22;95966.44;5055134;28;20426;-60
2021/03/14 10:03:16;;;;;;;3.80;1.07;;;;;;;5.91;78.87;95958.44;5056210;28;20428;-60
2021/03/14 10:05:47;;;;;;;0.97;0.77;;;;;;;5.31;79.43;95965.78;5054975;28;20433;-62
2021/03/14 10:08:33;;;;;;;2.83;0.90;;;;;;;5.43;79.44;95964.16;5054629;28;20652;-62
2021/03/14 10:11:03;;;;;;;0.90;0.90;;;;;;;5.51;80.48;95964.75;5054667;28;20425;-62
2021/03/14 10:13:29;;;;;;;1.27;1.00;;;;;;;5.60;79.14;95963.50;5055365;28;20405;-60
2021/03/14 10:15:55;;;;;;;3.13;0.80;;;;;;;5.65;78.93;95965.53;5064207;28;20786;-61
2021/03/14 10:18:23;;;;;;;1.97;0.77;;;;;;;5.70;77.63;95960.50;5070643;28;20191;-63
2021/03/14 10:20:50;;;;;;;1.00;1.00;;;;;;;5.86;77.20;95963.47;5055108;28;20978;-59
2021/03/14 10:23:24;;;;;;;1.00;1.00;;;;;;;5.59;78.19;95961.13;5055906;28;20424;-60
2021/03/14 10:25:50;;;;;;;1.60;0.93;;;;;;;5.84;77.69;95965.50;5058718;28;20492;-60
2021/03/14 10:28:18;;;;;;;1.60;1.03;;;;;;;5.93;75.33;95966.84;5054502;28;20445;-63
2021/03/14 10:30:46;;;;;;;1.13;0.90;;;;;;;5.84;76.60;95965.50;5066555;28;20471;-60
2021/03/14 10:33:14;;;;;;;3.33;0.80;;;;;;;6.02;75.78;95963.00;5050053;28;20802;-61
2021/03/14 10:35:41;;;;;;;1.40;0.87;;;;;;;5.98;74.85;95956.59;5054101;28;20437;-62
2021/03/14 10:38:17;;;;;;;2.20;1.03;;;;;;;5.97;77.28;95956.81;5050529;28;20821;-63
2021/03/14 10:40:43;;;;;;;1.63;0.93;;;;;;;6.45;75.51;95955.34;5050950;28;20861;-61
2021/03/14 10:43:19;;;;;;;5.83;1.30;;;;;;;6.48;75.97;95959.38;5050543;28;20418;-61
2021/03/14 10:45:46;;;;;;;3.27;0.80;;;;;;;6.50;76.66;95958.16;5051922;28;20533;-61
2021/03/14 10:48:11;;;;;;;1.10;1.00;;;;;;;6.44;75.58;95947.75;5050412;28;20436;-62
2021/03/14 10:50:37;;;;;;;2.00;0.80;;;;;;;6.41;74.31;95946.38;5048287;28;20422;-61
2021/03/14 10:53:09;;;;;;;3.07;1.13;;;;;;;6.32;74.53;95939.00;5030887;28;20180;-61
2021/03/14 10:55:37;;;;;;;2.07;0.93;;;;;;;6.51;75.48;95946.69;5030363;28;20186;-61
2021/03/14 10:58:14;;;;;;;0.70;0.70;;;;;;;6.46;73.80;95954.38;5046992;28;21082;-60
2021/03/14 11:00:50;;;;;;;1.13;0.90;;;;;;;6.39;75.47;95952.81;5050520;28;20476;-61
2021/03/14 11:03:36;;;;;;;2.57;1.20;;;;;;;6.41;73.86;95948.19;5050304;28;20835;-61
2021/03/14 11:06:25;;;;;;;1.67;1.03;;;;;;;6.79;73.60;95948.94;5050172;28;20506;-61
2021/03/14 11:09:04;;;;;;;2.03;1.13;;;;;;;6.52;70.93;95944.91;5050081;28;20434;-61
2021/03/14 11:11:44;;;;;;;6.17;1.20;;;;;;;6.70;71.53;95944.97;5058149;28;20972;-62
2021/03/14 11:14:27;;;;;;;2.93;0.80;;;;;;;6.76;68.40;95955.38;5070195;28;20496;-61
2021/03/14 11:17:19;;;;;;;2.10;0.97;;;;;;;6.27;69.08;95950.03;5049619;28;20992;-61
2021/03/14 11:19:46;;;;;;;1.27;1.17;;;;;;;6.43;68.55;95954.00;5049894;28;20406;-61
2021/03/14 11:22:16;;;;;;;1.13;1.00;;;;;;;6.33;66.82;95951.81;5050297;28;20429;-62
2021/03/14 11:24:42;;;;;;;3.87;0.83;;;;;;;6.44;66.83;95939.91;5050487;28;20410;-61
2021/03/14 11:27:08;;;;;;;3.63;1.10;;;;;;;6.68;65.73;95939.16;5035384;28;20418;-61
2021/03/14 11:29:34;;;;;;;2.03;0.80;;;;;;;6.58;65.13;95942.25;5068522;28;21229;-60
2021/03/14 11:31:59;;;;;;;1.63;0.90;;;;;;;6.98;66.18;95940.13;5049273;28;20216;-61
2021/03/14 11:34:25;;;;;;;2.57;0.90;;;;;;;7.00;65.16;95945.94;5049726;28;20423;-61
2021/03/14 11:36:50;;;;;;;2.97;0.80;;;;;;;7.00;63.23;95946.75;5049631;28;20203;-61
2021/03/14 11:39:17;;;;;;;1.33;1.10;;;;;;;6.91;62.90;95953.25;5049884;28;20693;-62
2021/03/14 11:41:44;;;;;;;1.50;1.00;;;;;;;6.75;64.27;95947.75;5051013;28;20433;-62
2021/03/14 11:44:10;;;;;;;3.53;0.97;;;;;;;6.68;64.15;95949.59;5049589;28;20675;-61
2021/03/14 11:46:35;;;;;;;1.13;0.80;;;;;;;6.67;65.60;95943.59;5049522;28;20440;-61
2021/03/14 11:49:01;;;;;;;3.60;1.00;;;;;;;7.19;64.41;95926.72;5050867;28;20204;-62